Ursa Minor — ICGH — position and weather

sailwx.info

Track history (hours):
 
Tides and Currents Weather Stations Pressure Air Temp Water Temp Dewpoint Dewpoint Depression Visibility Wind Speed Wind Dir Waves Ship Positions

Ursa Minor

Last reported at 2015-May-26 21:18 UTC. Time now 2015-May-27 05:51 UTC.
Position N 43°25' E 010°05'.

Length 205 m; draft 8 m.

Type: Ship. MMSI: 247082300.

Date/timePositionNaut miles runAvg speedWind from/ knotsBaromVisibWave heightAir tempDewpointWater temp
2015-May-26 21:18N 43°25' E 010°05'1013.3
2015-May-26 20:33N 43°33' E 009°57'1413.6
2015-May-26 19:33N 43°44' E 009°44'1413.5
2015-May-26 18:33N 43°53' E 009°31'1313.3
2015-May-26 17:33N 44°03' E 009°19'1313.0
2015-May-26 16:33N 44°13' E 009°06'9 9.3
2015-May-26 15:34N 44°20' E 008°58'6 6.0
2015-May-26 14:32N 44°24' E 008°52'0 0.0
2015-May-26 13:32N 44°24' E 008°52'0 0.0
2015-May-26 12:27N 44°24' E 008°52'0 0.0
2015-May-26 11:33N 44°24' E 008°52'0 0.0
2015-May-26 10:33N 44°24' E 008°52'0 0.0
2015-May-26 09:30N 44°24' E 008°52'0 0.2
2015-May-26 08:33N 44°24' E 008°52'1 1.3
2015-May-26 07:33N 44°24' E 008°54'10 9.7
2015-May-26 06:33N 44°17' E 009°03'1313.3
2015-May-26 05:33N 44°07' E 009°15'1313.3
2015-May-26 04:33N 43°57' E 009°27'1312.8
2015-May-26 03:33N 43°47' E 009°39'1312.8
2015-May-26 02:33N 43°38' E 009°51'1313.1
2015-May-26 01:33N 43°28' E 010°03'1312.8
2015-May-26 00:33N 43°17' E 010°11'1313.3
2015-May-25 23:33N 43°05' E 010°20'1413.1
2015-May-25 22:31N 42°53' E 010°29'1412.9
2015-May-25 21:26N 42°42' E 010°40'15312.8
2015-May-25 09:30N 41°00' E 013°13'1212.8
2015-May-25 08:33N 40°52' E 013°25'1312.8
2015-May-25 07:33N 40°44' E 013°38'1313.0
2015-May-25 06:34N 40°36' E 013°52'1313.1
2015-May-25 05:33N 40°28' E 014°05'13013.0
2015-May-24 19:31N 38°34' E 015°29'1313.0
2015-May-24 18:32N 38°24' E 015°38'9 9.3
2015-May-24 17:33N 38°15' E 015°39'1110.6
2015-May-24 16:33N 38°05' E 015°36'  
2015-May-21 06:18N 40°30' E 017°10'  
2015-May-18 14:11N 38°11' E 015°36'15513.0
2015-May-18 02:14N 40°29' E 014°04'913.4
2015-May-18 01:34N 40°35' E 013°56'1312.9
2015-May-18 00:33N 40°43' E 013°42'1312.9
2015-May-17 23:34N 40°50' E 013°29'1313.1
2015-May-17 22:32N 40°59' E 013°15'19913.1
2015-May-17 07:20N 43°21' E 010°08'1013.2
2015-May-17 06:33N 43°30' E 010°00'1313.2
2015-May-17 05:33N 43°40' E 009°48'1313.1
2015-May-17 04:33N 43°50' E 009°36'1313.4
2015-May-17 03:33N 43°60' E 009°23'1413.7
2015-May-17 02:33N 44°10' E 009°10'1312.9
2015-May-17 01:33N 44°19' E 008°59'7 6.5
2015-May-17 00:32N 44°24' E 008°52'0 0.0
2015-May-16 23:26N 44°24' E 008°52'0 0.0
2015-May-16 22:32N 44°24' E 008°52'0 0.2
2015-May-16 21:33N 44°24' E 008°52'  
Track history (hours):
 
Tides and Currents Weather Stations Pressure Air Temp Water Temp Dewpoint Dewpoint Depression Visibility Wind Speed Wind Dir Waves Ship Positions

Ursa Minor

Last reported at 2015-May-26 21:18 UTC. Time now 2015-May-27 05:51 UTC.
Position N 43°25' E 010°05'.

Length 205 m; draft 8 m.

Type: Ship. MMSI: 247082300.

Date/timePositionNaut miles runAvg speedWind from/ knotsBaromVisibWave heightAir tempDewpointWater temp
2015-May-26 21:18N 43°25' E 010°05'1013.3
2015-May-26 20:33N 43°33' E 009°57'1413.6
2015-May-26 19:33N 43°44' E 009°44'1413.5
2015-May-26 18:33N 43°53' E 009°31'1313.3
2015-May-26 17:33N 44°03' E 009°19'1313.0
2015-May-26 16:33N 44°13' E 009°06'9 9.3
2015-May-26 15:34N 44°20' E 008°58'6 6.0
2015-May-26 14:32N 44°24' E 008°52'0 0.0
2015-May-26 13:32N 44°24' E 008°52'0 0.0
2015-May-26 12:27N 44°24' E 008°52'0 0.0
2015-May-26 11:33N 44°24' E 008°52'0 0.0
2015-May-26 10:33N 44°24' E 008°52'0 0.0
2015-May-26 09:30N 44°24' E 008°52'0 0.2
2015-May-26 08:33N 44°24' E 008°52'1 1.3
2015-May-26 07:33N 44°24' E 008°54'10 9.7
2015-May-26 06:33N 44°17' E 009°03'1313.3
2015-May-26 05:33N 44°07' E 009°15'1313.3
2015-May-26 04:33N 43°57' E 009°27'1312.8
2015-May-26 03:33N 43°47' E 009°39'1312.8
2015-May-26 02:33N 43°38' E 009°51'1313.1
2015-May-26 01:33N 43°28' E 010°03'1312.8
2015-May-26 00:33N 43°17' E 010°11'1313.3
2015-May-25 23:33N 43°05' E 010°20'1413.1
2015-May-25 22:31N 42°53' E 010°29'1412.9
2015-May-25 21:26N 42°42' E 010°40'15312.8
2015-May-25 09:30N 41°00' E 013°13'1212.8
2015-May-25 08:33N 40°52' E 013°25'1312.8
2015-May-25 07:33N 40°44' E 013°38'1313.0
2015-May-25 06:34N 40°36' E 013°52'1313.1
2015-May-25 05:33N 40°28' E 014°05'13013.0
2015-May-24 19:31N 38°34' E 015°29'1313.0
2015-May-24 18:32N 38°24' E 015°38'9 9.3
2015-May-24 17:33N 38°15' E 015°39'1110.6
2015-May-24 16:33N 38°05' E 015°36'  
2015-May-21 06:18N 40°30' E 017°10'  
2015-May-18 14:11N 38°11' E 015°36'15513.0
2015-May-18 02:14N 40°29' E 014°04'913.4
2015-May-18 01:34N 40°35' E 013°56'1312.9
2015-May-18 00:33N 40°43' E 013°42'1312.9
2015-May-17 23:34N 40°50' E 013°29'1313.1
2015-May-17 22:32N 40°59' E 013°15'19913.1
2015-May-17 07:20N 43°21' E 010°08'1013.2
2015-May-17 06:33N 43°30' E 010°00'1313.2
2015-May-17 05:33N 43°40' E 009°48'1313.1
2015-May-17 04:33N 43°50' E 009°36'1313.4
2015-May-17 03:33N 43°60' E 009°23'1413.7
2015-May-17 02:33N 44°10' E 009°10'1312.9
2015-May-17 01:33N 44°19' E 008°59'7 6.5
2015-May-17 00:32N 44°24' E 008°52'0 0.0
2015-May-16 23:26N 44°24' E 008°52'0 0.0
2015-May-16 22:32N 44°24' E 008°52'0 0.2
2015-May-16 21:33N 44°24' E 008°52'  

Dump ship's entire track history